Nashville, Tennessee
Traffic Map
Current Weather Conditions
Nashville, Tennessee
Broken Clouds
Broken Clouds
25°
Feels Like: 26°
Wind Chill: 25° Ceiling: 3700
Heat Index: 26° Visibility: 10mi
Dew Point: 23° Wind: 7mph
Humidity: 88% Direction: 170° (S)
Pressure: 29.89in Gusts: 0mph
Raw Report DataKBNA 230553Z 17006KT 10SM FEW019 SCT023 BKN037 25/23 A2989 RMK AO2 SLP114 60000 T02500228 10256 20244 402830222 58002 $
Traffic Incident Summary
Active as of:
Severity:
Category:
InformationThere was an issue retrieving the traffic information for this location. Please try a different location or try again shortly.
Advertisements
Track Severe Weather on mobile